createdAt,value
2017-12-26T00:00:04.971Z,3.18
2017-12-26T00:01:04.962Z,3.13
2017-12-26T00:02:05.160Z,3.28
2017-12-26T00:03:04.937Z,3.29
2017-12-26T00:04:04.927Z,3.42
2017-12-26T00:05:06.759Z,3.45
2017-12-26T00:06:04.974Z,3.55
2017-12-26T00:07:06.723Z,3.53
2017-12-26T00:08:04.894Z,3.59
2017-12-26T00:09:04.893Z,3.68
2017-12-26T00:10:04.877Z,3.80
2017-12-26T00:11:04.871Z,3.86
2017-12-26T00:12:04.873Z,3.91
2017-12-26T00:13:04.886Z,3.91
2017-12-26T00:14:04.884Z,3.92
2017-12-26T00:15:04.835Z,3.98
2017-12-26T00:16:04.846Z,3.95
2017-12-26T00:17:04.830Z,3.96
2017-12-26T00:18:06.728Z,3.99
2017-12-26T00:19:04.819Z,4.01
2017-12-26T00:20:04.816Z,3.94
2017-12-26T00:21:04.815Z,3.99
2017-12-26T00:22:04.779Z,4.12
2017-12-26T00:23:06.726Z,4.16
2017-12-26T00:24:04.772Z,4.16
2017-12-26T00:25:04.770Z,4.23
2017-12-26T00:26:04.765Z,4.19
2017-12-26T00:27:04.748Z,4.28
2017-12-26T00:28:04.756Z,4.26
2017-12-26T00:29:04.737Z,4.31
2017-12-26T00:30:04.727Z,4.40
2017-12-26T00:31:04.721Z,4.31
2017-12-26T00:32:04.707Z,4.42
2017-12-26T00:33:04.704Z,4.52
2017-12-26T00:34:04.706Z,4.58
2017-12-26T00:35:04.681Z,4.53
2017-12-26T00:36:04.719Z,4.71
2017-12-26T00:37:06.232Z,4.77
2017-12-26T00:38:04.664Z,4.70
2017-12-26T00:39:04.652Z,4.77
2017-12-26T00:40:04.649Z,4.80
2017-12-26T00:41:04.634Z,4.87
2017-12-26T00:42:04.659Z,4.92
2017-12-26T00:43:04.642Z,4.92
2017-12-26T00:44:04.617Z,4.94
2017-12-26T00:45:04.619Z,4.92
2017-12-26T00:46:04.600Z,4.92
2017-12-26T00:47:04.593Z,4.97
2017-12-26T00:48:04.601Z,5.00
2017-12-26T00:49:04.588Z,5.00
2017-12-26T00:50:04.606Z,5.05
2017-12-26T00:51:04.583Z,5.02
2017-12-26T00:52:04.585Z,5.00
2017-12-26T00:53:04.576Z,5.05
2017-12-26T00:54:04.549Z,5.07
2017-12-26T00:55:04.541Z,5.08
2017-12-26T00:56:04.550Z,5.12
2017-12-26T00:57:04.545Z,5.08
2017-12-26T00:58:04.518Z,5.04
2017-12-26T00:59:06.236Z,5.14
2017-12-26T01:00:04.500Z,5.11
2017-12-26T01:01:04.492Z,5.15
2017-12-26T01:02:04.483Z,5.17
2017-12-26T01:03:04.484Z,5.17
2017-12-26T01:04:06.243Z,5.14
2017-12-26T01:05:04.469Z,5.20
2017-12-26T01:06:04.458Z,5.26
2017-12-26T01:07:04.465Z,5.33
2017-12-26T01:08:06.252Z,5.33
2017-12-26T01:09:04.473Z,5.32
2017-12-26T01:10:05.438Z,5.28
2017-12-26T01:11:04.427Z,5.30
2017-12-26T01:12:04.417Z,5.39
2017-12-26T01:13:04.417Z,5.47
2017-12-26T01:14:04.401Z,5.61
2017-12-26T01:15:04.397Z,5.56
2017-12-26T01:16:04.413Z,5.54
2017-12-26T01:17:04.399Z,5.47
2017-12-26T01:18:04.375Z,5.48
2017-12-26T01:19:04.379Z,5.50
2017-12-26T01:20:04.394Z,5.56
2017-12-26T01:21:04.364Z,5.56
2017-12-26T01:22:04.376Z,5.59
2017-12-26T01:23:04.373Z,5.57
2017-12-26T01:24:04.337Z,5.59
2017-12-26T01:25:04.326Z,5.53
2017-12-26T01:26:04.331Z,5.64
2017-12-26T01:27:04.310Z,5.46
2017-12-26T01:28:04.327Z,5.48
2017-12-26T01:29:06.238Z,5.46
2017-12-26T01:30:04.293Z,5.51
2017-12-26T01:31:04.295Z,5.53
2017-12-26T01:32:06.268Z,5.62
2017-12-26T01:33:06.240Z,5.62
2017-12-26T01:34:04.262Z,5.65
2017-12-26T01:35:04.263Z,5.79
2017-12-26T01:36:04.256Z,5.87
2017-12-26T01:37:04.252Z,6.02
2017-12-26T01:38:04.243Z,6.07
2017-12-26T01:39:04.237Z,6.07
2017-12-26T01:40:05.771Z,6.16
2017-12-26T01:41:04.218Z,6.17
2017-12-26T01:42:04.214Z,6.26
2017-12-26T01:43:04.236Z,6.22
2017-12-26T01:44:04.207Z,6.27
2017-12-26T01:45:04.198Z,6.30
2017-12-26T01:46:04.192Z,6.41
2017-12-26T01:47:04.193Z,6.48
2017-12-26T01:48:04.194Z,6.44
2017-12-26T01:49:04.184Z,6.54
2017-12-26T01:50:04.167Z,6.54
2017-12-26T01:51:04.155Z,6.51
2017-12-26T01:52:04.153Z,6.57
2017-12-26T01:53:04.148Z,6.59
2017-12-26T01:54:04.138Z,6.74
2017-12-26T01:55:04.150Z,6.77
2017-12-26T01:56:04.120Z,6.85
2017-12-26T01:57:04.125Z,6.87
2017-12-26T01:58:04.118Z,6.92
2017-12-26T01:59:04.110Z,6.92
2017-12-26T02:00:04.101Z,6.84
2017-12-26T02:01:04.099Z,6.95
2017-12-26T02:02:04.096Z,6.96
2017-12-26T02:03:04.101Z,6.89
2017-12-26T02:04:04.090Z,6.85
2017-12-26T02:05:05.778Z,6.88
2017-12-26T02:06:04.096Z,6.97
2017-12-26T02:07:04.062Z,6.92
2017-12-26T02:08:04.060Z,6.92
2017-12-26T02:09:04.048Z,6.82
2017-12-26T02:10:04.041Z,6.81
2017-12-26T02:11:04.036Z,6.87
2017-12-26T02:12:04.032Z,6.88
2017-12-26T02:13:05.750Z,6.89
2017-12-26T02:14:04.021Z,6.96
2017-12-26T02:15:04.035Z,6.92
2017-12-26T02:16:04.008Z,6.92
2017-12-26T02:17:04.005Z,6.89
2017-12-26T02:18:04.008Z,6.89
2017-12-26T02:19:03.990Z,6.92
2017-12-26T02:20:03.998Z,7.00
2017-12-26T02:21:04.013Z,6.89
2017-12-26T02:22:05.755Z,7.05
2017-12-26T02:23:03.961Z,6.89
2017-12-26T02:24:03.960Z,6.96
2017-12-26T02:25:03.953Z,6.92
2017-12-26T02:26:03.954Z,6.85
2017-12-26T02:27:03.946Z,6.89
2017-12-26T02:28:03.953Z,6.87
2017-12-26T02:29:03.931Z,6.79
2017-12-26T02:30:03.927Z,6.85
2017-12-26T02:31:03.967Z,7.00
2017-12-26T02:32:03.917Z,6.96
2017-12-26T02:33:03.938Z,6.92
2017-12-26T02:34:03.899Z,7.03
2017-12-26T02:35:03.897Z,7.00
2017-12-26T02:36:03.890Z,7.05
2017-12-26T02:37:05.755Z,7.02
2017-12-26T02:38:03.882Z,7.06
2017-12-26T02:39:05.765Z,6.92
2017-12-26T02:40:03.868Z,7.03
2017-12-26T02:41:03.888Z,7.02
2017-12-26T02:42:03.857Z,6.97
2017-12-26T02:43:03.847Z,7.06
2017-12-26T02:44:06.761Z,7.05
2017-12-26T02:45:03.838Z,7.10
2017-12-26T02:46:03.829Z,7.05
2017-12-26T02:47:03.826Z,7.07
2017-12-26T02:48:03.825Z,7.17
2017-12-26T02:49:03.826Z,7.06
2017-12-26T02:50:05.763Z,7.02
2017-12-26T02:51:03.803Z,7.02
2017-12-26T02:52:03.834Z,6.99
2017-12-26T02:53:03.796Z,7.02
2017-12-26T02:54:03.790Z,7.03
2017-12-26T02:55:03.797Z,7.11
2017-12-26T02:56:03.777Z,7.14
2017-12-26T02:57:03.794Z,7.21
2017-12-26T02:58:03.764Z,7.25
2017-12-26T02:59:03.757Z,7.21
2017-12-26T03:00:03.754Z,7.23
2017-12-26T03:01:03.750Z,7.24
2017-12-26T03:02:03.746Z,7.24
2017-12-26T03:03:03.752Z,7.23
2017-12-26T03:04:03.759Z,7.14
2017-12-26T03:05:03.723Z,7.31
2017-12-26T03:06:03.721Z,7.29
2017-12-26T03:07:03.709Z,7.29
2017-12-26T03:08:03.721Z,7.25
2017-12-26T03:09:03.709Z,7.28
2017-12-26T03:10:06.271Z,7.29
2017-12-26T03:11:03.695Z,7.20
2017-12-26T03:12:03.689Z,7.28
2017-12-26T03:13:03.679Z,7.15
2017-12-26T03:14:03.718Z,7.10
2017-12-26T03:15:03.675Z,7.02
2017-12-26T03:16:03.664Z,7.10
2017-12-26T03:17:05.264Z,7.07
2017-12-26T03:18:03.656Z,7.14
2017-12-26T03:19:03.674Z,7.07
2017-12-26T03:20:06.296Z,7.13
2017-12-26T03:21:03.635Z,7.15
2017-12-26T03:22:05.265Z,7.24
2017-12-26T03:23:03.631Z,7.21
2017-12-26T03:24:03.626Z,7.13
2017-12-26T03:25:03.616Z,7.15
2017-12-26T03:26:03.650Z,7.10
2017-12-26T03:27:03.598Z,7.18
2017-12-26T03:28:03.601Z,7.14
2017-12-26T03:29:03.592Z,7.18
2017-12-26T03:30:03.618Z,7.25
2017-12-26T03:31:03.582Z,7.23
2017-12-26T03:32:03.579Z,7.24
2017-12-26T03:33:03.569Z,7.18
2017-12-26T03:34:03.569Z,7.13
2017-12-26T03:35:03.557Z,7.13
2017-12-26T03:36:03.559Z,7.14
2017-12-26T03:37:03.548Z,7.13
2017-12-26T03:38:03.545Z,7.06
2017-12-26T03:39:03.538Z,7.00
2017-12-26T03:40:03.536Z,7.05
2017-12-26T03:41:03.531Z,7.03
2017-12-26T03:42:03.527Z,7.02
2017-12-26T03:43:05.269Z,6.96
2017-12-26T03:44:03.528Z,7.03
2017-12-26T03:45:03.514Z,7.02
2017-12-26T03:46:03.504Z,7.02
2017-12-26T03:47:03.490Z,7.03
2017-12-26T03:48:03.489Z,7.15
2017-12-26T03:49:03.501Z,7.11
2017-12-26T03:50:03.486Z,7.20
2017-12-26T03:51:03.487Z,7.23
2017-12-26T03:52:03.467Z,7.29
2017-12-26T03:53:03.475Z,7.25
2017-12-26T03:54:03.456Z,7.18
2017-12-26T03:55:03.454Z,7.21
2017-12-26T03:56:06.271Z,7.20
2017-12-26T03:57:05.292Z,7.20
2017-12-26T03:58:03.441Z,7.28
2017-12-26T03:59:03.457Z,7.14
2017-12-26T04:00:03.436Z,7.11
2017-12-26T04:01:03.419Z,7.02
2017-12-26T04:02:03.414Z,7.03
2017-12-26T04:03:05.272Z,7.05
2017-12-26T04:04:03.434Z,6.99
2017-12-26T04:05:03.390Z,7.00
2017-12-26T04:06:05.270Z,7.11
2017-12-26T04:07:05.334Z,7.15
2017-12-26T04:08:03.382Z,7.15
2017-12-26T04:09:03.381Z,7.17
2017-12-26T04:10:03.368Z,7.31
2017-12-26T04:11:03.372Z,7.21
2017-12-26T04:12:03.356Z,7.33
2017-12-26T04:13:03.379Z,7.31
2017-12-26T04:14:03.355Z,7.21
2017-12-26T04:15:03.367Z,7.24
2017-12-26T04:16:03.360Z,7.28
2017-12-26T04:17:03.340Z,7.33
2017-12-26T04:18:03.333Z,7.32
2017-12-26T04:19:03.325Z,7.29
2017-12-26T04:20:03.321Z,7.28
2017-12-26T04:21:03.320Z,7.28
2017-12-26T04:22:03.330Z,7.23
2017-12-26T04:23:03.301Z,7.28
2017-12-26T04:24:03.294Z,7.24
2017-12-26T04:25:03.292Z,7.21
2017-12-26T04:26:04.783Z,7.28
2017-12-26T04:27:03.277Z,7.24
2017-12-26T04:28:03.275Z,7.24
2017-12-26T04:29:03.278Z,7.28
2017-12-26T04:30:05.774Z,7.20
2017-12-26T04:31:03.260Z,7.25
2017-12-26T04:32:03.255Z,7.14
2017-12-26T04:33:03.243Z,7.28
2017-12-26T04:34:03.241Z,7.23
2017-12-26T04:35:03.232Z,7.29
2017-12-26T04:36:03.247Z,7.24
2017-12-26T04:37:03.222Z,7.13
2017-12-26T04:38:03.224Z,7.29
2017-12-26T04:39:03.289Z,7.15
2017-12-26T04:40:03.225Z,7.24
2017-12-26T04:41:03.200Z,7.20
2017-12-26T04:42:03.205Z,7.28
2017-12-26T04:43:03.198Z,7.23
2017-12-26T04:44:03.202Z,7.23
2017-12-26T04:45:03.180Z,7.25
2017-12-26T04:46:03.183Z,7.28
2017-12-26T04:47:03.165Z,7.25
2017-12-26T04:48:03.158Z,7.25
2017-12-26T04:49:03.166Z,7.20
2017-12-26T04:50:03.159Z,7.14
2017-12-26T04:51:03.149Z,7.25
2017-12-26T04:52:03.170Z,7.24
2017-12-26T04:53:03.139Z,7.28
2017-12-26T04:54:03.137Z,7.28
2017-12-26T04:55:03.127Z,7.25
2017-12-26T04:56:03.122Z,7.28
2017-12-26T04:57:03.126Z,7.28
2017-12-26T04:58:03.110Z,7.17
2017-12-26T04:59:03.102Z,7.17
2017-12-26T05:00:03.098Z,7.18
2017-12-26T05:01:03.091Z,7.11
2017-12-26T05:02:03.087Z,7.03
2017-12-26T05:03:03.080Z,7.11
2017-12-26T05:04:03.096Z,7.20
2017-12-26T05:05:03.080Z,7.20
2017-12-26T05:06:03.078Z,7.17
2017-12-26T05:07:03.066Z,7.14
2017-12-26T05:08:03.063Z,7.17
2017-12-26T05:09:03.050Z,7.23
2017-12-26T05:10:03.056Z,7.28
2017-12-26T05:11:03.079Z,7.21
2017-12-26T05:12:03.038Z,7.24
2017-12-26T05:13:03.033Z,7.21
2017-12-26T05:14:03.022Z,7.25
2017-12-26T05:15:03.014Z,7.31
2017-12-26T05:16:03.008Z,7.25
2017-12-26T05:17:03.008Z,7.36
2017-12-26T05:18:03.000Z,7.29
2017-12-26T05:19:02.995Z,7.35
2017-12-26T05:20:02.989Z,7.31
2017-12-26T05:21:02.981Z,7.31
2017-12-26T05:22:05.790Z,7.36
2017-12-26T05:23:02.996Z,7.43
2017-12-26T05:24:02.969Z,7.45
2017-12-26T05:25:03.007Z,7.36
2017-12-26T05:26:02.965Z,7.38
2017-12-26T05:27:02.948Z,7.40
2017-12-26T05:28:02.946Z,7.53
2017-12-26T05:29:02.957Z,7.57
2017-12-26T05:30:02.939Z,7.54
2017-12-26T05:31:02.935Z,7.51
2017-12-26T05:32:02.948Z,7.57
2017-12-26T05:33:02.920Z,7.51
2017-12-26T05:34:04.787Z,7.50
2017-12-26T05:35:02.909Z,7.58
2017-12-26T05:36:04.790Z,7.58
2017-12-26T05:37:02.899Z,7.54
2017-12-26T05:38:02.895Z,7.47
2017-12-26T05:39:02.893Z,7.42
2017-12-26T05:40:02.884Z,7.47
2017-12-26T05:41:02.884Z,7.40
2017-12-26T05:42:02.899Z,7.43
2017-12-26T05:43:02.884Z,7.42
2017-12-26T05:44:02.861Z,7.47
2017-12-26T05:45:02.857Z,7.35
2017-12-26T05:46:02.853Z,7.40
2017-12-26T05:47:02.852Z,7.43
2017-12-26T05:48:04.796Z,7.42
2017-12-26T05:49:02.856Z,7.43
2017-12-26T05:50:02.827Z,7.53
2017-12-26T05:51:02.845Z,7.54
2017-12-26T05:52:02.820Z,7.54
2017-12-26T05:53:02.823Z,7.57
2017-12-26T05:54:02.838Z,7.48
2017-12-26T05:55:02.810Z,7.56
2017-12-26T05:56:02.823Z,7.50
2017-12-26T05:57:02.794Z,7.42
2017-12-26T05:58:02.794Z,7.40
2017-12-26T05:59:05.290Z,7.42
2017-12-26T06:00:02.786Z,7.36
2017-12-26T06:01:02.772Z,7.36
2017-12-26T06:02:02.766Z,7.28
2017-12-26T06:03:02.766Z,7.31
2017-12-26T06:04:02.780Z,7.31
2017-12-26T06:05:02.780Z,7.39
2017-12-26T06:06:04.310Z,7.31
2017-12-26T06:07:02.749Z,7.35
2017-12-26T06:08:02.759Z,7.35
2017-12-26T06:09:02.731Z,7.32
2017-12-26T06:10:02.763Z,7.33
2017-12-26T06:11:02.717Z,7.36
2017-12-26T06:12:02.723Z,7.23
2017-12-26T06:13:02.720Z,7.29
2017-12-26T06:14:04.292Z,7.32
2017-12-26T06:15:02.714Z,7.29
2017-12-26T06:16:02.696Z,7.25
2017-12-26T06:17:02.701Z,7.31
2017-12-26T06:18:02.689Z,7.25
2017-12-26T06:19:02.702Z,7.31
2017-12-26T06:20:02.677Z,7.24
2017-12-26T06:21:02.675Z,7.23
2017-12-26T06:22:02.669Z,7.14
2017-12-26T06:23:04.317Z,7.18
2017-12-26T06:24:04.313Z,7.15
2017-12-26T06:25:02.682Z,7.14
2017-12-26T06:26:02.651Z,7.11
2017-12-26T06:27:02.675Z,7.14
2017-12-26T06:28:02.629Z,7.15
2017-12-26T06:29:02.645Z,7.18
2017-12-26T06:30:02.620Z,7.14
2017-12-26T06:31:02.628Z,7.07
2017-12-26T06:32:02.625Z,7.11
2017-12-26T06:33:02.602Z,7.05
2017-12-26T06:34:02.596Z,7.13
2017-12-26T06:35:02.614Z,7.17
2017-12-26T06:36:02.609Z,7.20
2017-12-26T06:37:02.582Z,7.23
2017-12-26T06:38:02.627Z,7.29
2017-12-26T06:39:02.571Z,7.24
2017-12-26T06:40:02.573Z,7.23
2017-12-26T06:41:02.556Z,7.29
2017-12-26T06:42:04.331Z,7.17
2017-12-26T06:43:04.302Z,7.23
2017-12-26T06:44:02.544Z,7.24
2017-12-26T06:45:02.569Z,7.33
2017-12-26T06:46:02.532Z,7.35
2017-12-26T06:47:04.326Z,7.28
2017-12-26T06:48:02.519Z,7.38
2017-12-26T06:49:02.535Z,7.35
2017-12-26T06:50:02.513Z,7.36
2017-12-26T06:51:02.500Z,7.42
2017-12-26T06:52:02.503Z,7.36
2017-12-26T06:53:02.495Z,7.45
2017-12-26T06:54:02.504Z,7.39
2017-12-26T06:55:05.302Z,7.42
2017-12-26T06:56:04.303Z,7.38
2017-12-26T06:57:02.470Z,7.42
2017-12-26T06:58:02.496Z,7.40
2017-12-26T06:59:02.466Z,7.29
2017-12-26T07:00:04.343Z,7.38
2017-12-26T07:01:02.451Z,7.39
2017-12-26T07:02:02.484Z,7.32
2017-12-26T07:03:04.324Z,7.33
2017-12-26T07:04:02.447Z,7.28
2017-12-26T07:05:02.432Z,7.25
2017-12-26T07:06:02.435Z,7.29
2017-12-26T07:07:02.419Z,7.38
2017-12-26T07:08:02.412Z,7.25
2017-12-26T07:09:02.445Z,7.28
2017-12-26T07:10:04.324Z,7.32
2017-12-26T07:11:05.342Z,7.24
2017-12-26T07:12:02.426Z,7.31
2017-12-26T07:13:02.411Z,7.31
2017-12-26T07:14:02.413Z,7.21
2017-12-26T07:15:04.355Z,7.28
2017-12-26T07:16:02.376Z,7.20
2017-12-26T07:17:04.329Z,7.23
2017-12-26T07:18:02.381Z,7.32
2017-12-26T07:19:02.364Z,7.29
2017-12-26T07:20:02.351Z,7.35
2017-12-26T07:21:02.370Z,7.35
2017-12-26T07:22:02.376Z,7.35
2017-12-26T07:23:02.356Z,7.48
2017-12-26T07:24:02.347Z,7.40
2017-12-26T07:25:04.315Z,7.36
2017-12-26T07:26:02.328Z,7.39
2017-12-26T07:27:02.329Z,7.39
2017-12-26T07:28:02.326Z,7.35
2017-12-26T07:29:02.318Z,7.40
2017-12-26T07:30:02.309Z,7.47
2017-12-26T07:31:02.301Z,7.50
2017-12-26T07:32:02.295Z,7.54
2017-12-26T07:33:02.292Z,7.72
2017-12-26T07:34:02.282Z,7.85
2017-12-26T07:35:02.277Z,7.79
2017-12-26T07:36:02.345Z,7.91
2017-12-26T07:37:02.263Z,7.95
2017-12-26T07:38:02.262Z,7.94
2017-12-26T07:39:02.273Z,7.97
2017-12-26T07:40:02.256Z,7.98
2017-12-26T07:41:03.822Z,8.03
2017-12-26T07:42:02.247Z,8.05
2017-12-26T07:43:02.236Z,8.08
2017-12-26T07:44:02.234Z,8.16
2017-12-26T07:45:02.228Z,8.16
2017-12-26T07:46:02.224Z,8.20
2017-12-26T07:47:03.820Z,8.23
2017-12-26T07:48:02.216Z,8.27
2017-12-26T07:49:02.208Z,8.27
2017-12-26T07:50:02.208Z,8.26
2017-12-26T07:51:02.225Z,8.31
2017-12-26T07:52:02.245Z,8.31
2017-12-26T07:53:03.819Z,8.38
2017-12-26T07:54:03.838Z,8.36
2017-12-26T07:55:02.178Z,8.42
2017-12-26T07:56:02.198Z,8.38
2017-12-26T07:57:04.842Z,8.38
2017-12-26T07:58:02.180Z,8.38
2017-12-26T07:59:02.174Z,8.42
2017-12-26T08:00:02.161Z,8.52
2017-12-26T08:01:02.160Z,8.46
2017-12-26T08:02:02.150Z,8.44
2017-12-26T08:03:02.138Z,8.45
2017-12-26T08:04:02.139Z,8.49
2017-12-26T08:05:02.137Z,8.55
2017-12-26T08:06:02.141Z,8.53
2017-12-26T08:07:02.132Z,8.53
2017-12-26T08:08:03.825Z,8.64
2017-12-26T08:09:02.122Z,8.61
2017-12-26T08:10:02.114Z,8.64
2017-12-26T08:11:02.113Z,8.64
2017-12-26T08:12:02.112Z,8.61
2017-12-26T08:13:02.117Z,8.63
2017-12-26T08:14:02.096Z,8.64
2017-12-26T08:15:02.117Z,8.64
2017-12-26T08:16:02.095Z,8.60
2017-12-26T08:17:02.085Z,8.67
2017-12-26T08:18:02.084Z,8.71
2017-12-26T08:19:02.097Z,8.73
2017-12-26T08:20:02.091Z,8.69
2017-12-26T08:21:02.085Z,8.73
2017-12-26T08:22:02.068Z,8.79
2017-12-26T08:23:02.059Z,8.74
2017-12-26T08:24:02.051Z,8.81
2017-12-26T08:25:02.047Z,8.88
2017-12-26T08:26:02.057Z,8.85
2017-12-26T08:27:03.823Z,8.85
2017-12-26T08:28:02.037Z,8.92
2017-12-26T08:29:02.034Z,8.88
2017-12-26T08:30:02.036Z,8.87
2017-12-26T08:31:02.021Z,8.81
2017-12-26T08:32:02.022Z,8.89
2017-12-26T08:33:02.019Z,8.74
2017-12-26T08:34:02.014Z,8.87
2017-12-26T08:35:02.011Z,8.85
2017-12-26T08:36:02.006Z,8.88
2017-12-26T08:37:03.833Z,8.87
2017-12-26T08:38:01.997Z,8.97
2017-12-26T08:39:01.986Z,8.92
2017-12-26T08:40:02.000Z,8.91
2017-12-26T08:41:01.985Z,8.97
2017-12-26T08:42:01.986Z,8.97
2017-12-26T08:43:01.986Z,8.99
2017-12-26T08:44:01.973Z,8.95
2017-12-26T08:45:02.000Z,9.02
2017-12-26T08:46:01.962Z,9.06
2017-12-26T08:47:03.830Z,9.02
2017-12-26T08:48:01.962Z,9.08
2017-12-26T08:49:01.952Z,9.06
2017-12-26T08:50:01.948Z,9.14
2017-12-26T08:51:01.944Z,9.14
2017-12-26T08:52:01.942Z,9.14
2017-12-26T08:53:01.937Z,9.18
2017-12-26T08:54:01.943Z,9.13
2017-12-26T08:55:01.930Z,9.16
2017-12-26T08:56:01.936Z,9.16
2017-12-26T08:57:03.891Z,9.16
2017-12-26T08:58:01.915Z,9.25
2017-12-26T08:59:01.957Z,9.13
2017-12-26T09:00:01.921Z,9.22
2017-12-26T09:01:01.915Z,9.21
2017-12-26T09:02:01.907Z,9.25
2017-12-26T09:03:01.905Z,9.19
2017-12-26T09:04:01.910Z,9.26
2017-12-26T09:05:01.903Z,9.31
2017-12-26T09:06:01.905Z,9.28
2017-12-26T09:07:01.909Z,9.32
2017-12-26T09:08:01.893Z,9.31
2017-12-26T09:09:01.885Z,9.34
2017-12-26T09:10:03.836Z,9.36
2017-12-26T09:11:01.874Z,9.36
2017-12-26T09:12:01.874Z,9.44
2017-12-26T09:13:03.852Z,9.41
2017-12-26T09:14:01.901Z,9.47
2017-12-26T09:15:01.861Z,9.47
2017-12-26T09:16:01.860Z,9.50
2017-12-26T09:17:01.854Z,9.48
2017-12-26T09:18:01.856Z,9.46
2017-12-26T09:19:01.876Z,9.50
2017-12-26T09:20:01.845Z,9.54
2017-12-26T09:21:01.843Z,9.65
2017-12-26T09:22:01.843Z,9.65
2017-12-26T09:23:03.333Z,9.59
2017-12-26T09:24:01.840Z,9.59
2017-12-26T09:25:01.826Z,9.61
2017-12-26T09:26:03.340Z,9.59
2017-12-26T09:27:01.849Z,9.65
2017-12-26T09:28:01.821Z,9.64
2017-12-26T09:29:01.818Z,9.62
2017-12-26T09:30:01.814Z,9.68
2017-12-26T09:31:03.340Z,9.58
2017-12-26T09:32:01.817Z,9.62
2017-12-26T09:33:01.822Z,9.69
2017-12-26T09:34:01.798Z,9.68
2017-12-26T09:35:01.798Z,9.72
2017-12-26T09:36:01.805Z,9.73
2017-12-26T09:37:01.792Z,9.66
2017-12-26T09:38:01.791Z,9.72
2017-12-26T09:39:01.786Z,9.77
2017-12-26T09:40:01.782Z,9.69
2017-12-26T09:41:04.338Z,9.80
2017-12-26T09:42:01.779Z,9.77
2017-12-26T09:43:01.772Z,9.82
2017-12-26T09:44:01.770Z,9.82
2017-12-26T09:45:01.773Z,9.84
2017-12-26T09:46:01.761Z,9.92
2017-12-26T09:47:01.760Z,9.83
2017-12-26T09:48:03.337Z,9.87
2017-12-26T09:49:01.770Z,9.83
2017-12-26T09:50:01.781Z,9.77
2017-12-26T09:51:03.343Z,9.82
2017-12-26T09:52:01.747Z,9.80
2017-12-26T09:53:01.740Z,9.84
2017-12-26T09:54:02.762Z,9.76
2017-12-26T09:55:01.773Z,9.77
2017-12-26T09:56:01.768Z,9.84
2017-12-26T09:57:01.737Z,9.84
2017-12-26T09:58:01.754Z,9.83
2017-12-26T09:59:01.738Z,9.95
2017-12-26T10:00:05.342Z,10.09
2017-12-26T10:01:01.716Z,10.07
2017-12-26T10:02:01.713Z,10.07
2017-12-26T10:03:01.712Z,10.09
2017-12-26T10:04:02.304Z,10.20
2017-12-26T10:05:01.710Z,10.19
2017-12-26T10:06:01.706Z,10.23
2017-12-26T10:07:01.715Z,10.26
2017-12-26T10:08:01.714Z,10.30
2017-12-26T10:09:03.481Z,10.17
2017-12-26T10:10:01.695Z,10.25
2017-12-26T10:11:01.700Z,10.16
2017-12-26T10:12:01.729Z,10.30
2017-12-26T10:13:03.367Z,10.35
2017-12-26T10:14:03.356Z,10.40
2017-12-26T10:15:01.675Z,10.53
2017-12-26T10:16:03.352Z,10.53
2017-12-26T10:17:01.672Z,10.63
2017-12-26T10:18:01.681Z,10.63
2017-12-26T10:19:01.670Z,10.67
2017-12-26T10:20:01.671Z,10.64
2017-12-26T10:21:01.667Z,10.68
2017-12-26T10:22:01.665Z,10.71
2017-12-26T10:23:01.668Z,10.72
2017-12-26T10:24:01.663Z,10.74
2017-12-26T10:25:01.655Z,10.72
2017-12-26T10:26:01.670Z,10.71
2017-12-26T10:27:01.659Z,10.75
2017-12-26T10:28:01.680Z,10.81
2017-12-26T10:29:01.641Z,10.87
2017-12-26T10:30:04.376Z,10.84
2017-12-26T10:31:01.635Z,10.92
2017-12-26T10:32:03.349Z,10.93
2017-12-26T10:33:03.360Z,10.87
2017-12-26T10:34:01.636Z,10.99
2017-12-26T10:35:01.630Z,10.97
2017-12-26T10:36:01.621Z,10.90
2017-12-26T10:37:01.625Z,11.07
2017-12-26T10:38:01.630Z,11.07
2017-12-26T10:39:01.618Z,10.97
2017-12-26T10:40:01.624Z,11.05
2017-12-26T10:41:01.621Z,11.04
2017-12-26T10:42:02.190Z,10.99
2017-12-26T10:43:01.638Z,11.02
2017-12-26T10:44:03.366Z,11.02
2017-12-26T10:45:01.622Z,11.07
2017-12-26T10:46:01.620Z,11.14
2017-12-26T10:47:01.644Z,11.12
2017-12-26T10:48:02.167Z,11.07
2017-12-26T10:49:01.598Z,11.07
2017-12-26T10:50:01.590Z,10.96
2017-12-26T10:51:01.826Z,11.07
2017-12-26T10:52:01.595Z,11.05
2017-12-26T10:53:01.590Z,11.10
2017-12-26T10:54:01.690Z,11.07
2017-12-26T10:55:01.585Z,11.08
2017-12-26T10:56:01.578Z,11.14
2017-12-26T10:57:05.376Z,11.10
2017-12-26T10:58:03.358Z,11.15
2017-12-26T10:59:01.581Z,11.19
2017-12-26T11:00:01.573Z,11.10
2017-12-26T11:01:01.577Z,11.19
2017-12-26T11:02:01.569Z,11.19
2017-12-26T11:03:04.389Z,11.11
2017-12-26T11:04:01.586Z,11.19
2017-12-26T11:05:01.560Z,11.19
2017-12-26T11:06:04.386Z,11.18
2017-12-26T11:07:03.369Z,11.30
2017-12-26T11:08:01.574Z,11.25
2017-12-26T11:09:01.588Z,11.25
2017-12-26T11:10:03.381Z,11.25
2017-12-26T11:11:01.560Z,11.25
2017-12-26T11:12:01.585Z,11.19
2017-12-26T11:13:01.555Z,11.23
2017-12-26T11:14:01.941Z,11.17
2017-12-26T11:15:01.956Z,11.23
2017-12-26T11:16:01.541Z,11.18
2017-12-26T11:17:01.542Z,11.30
2017-12-26T11:18:01.537Z,11.22
2017-12-26T11:19:01.538Z,11.23
2017-12-26T11:20:04.363Z,11.27
2017-12-26T11:21:01.791Z,11.18
2017-12-26T11:22:01.529Z,11.25
2017-12-26T11:23:01.532Z,11.18
2017-12-26T11:24:01.525Z,11.19
2017-12-26T11:25:04.374Z,11.27
2017-12-26T11:26:03.068Z,11.33
2017-12-26T11:27:01.531Z,11.32
2017-12-26T11:28:03.440Z,11.36
2017-12-26T11:29:01.608Z,11.32
2017-12-26T11:30:05.415Z,11.32
2017-12-26T11:31:01.524Z,11.33
2017-12-26T11:32:01.510Z,11.30
2017-12-26T11:33:01.521Z,11.27
2017-12-26T11:34:01.503Z,11.41
2017-12-26T11:35:01.780Z,11.45
2017-12-26T11:36:01.530Z,11.47
2017-12-26T11:37:01.498Z,11.41
2017-12-26T11:38:04.394Z,11.43
2017-12-26T11:39:01.493Z,11.40
2017-12-26T11:40:01.536Z,11.41
2017-12-26T11:41:01.511Z,11.43
2017-12-26T11:42:01.498Z,11.50
2017-12-26T11:43:01.489Z,11.41
2017-12-26T11:44:01.506Z,11.50
2017-12-26T11:45:01.502Z,11.50
2017-12-26T11:46:01.488Z,11.51
2017-12-26T11:47:01.485Z,11.45
2017-12-26T11:48:01.487Z,11.59
2017-12-26T11:49:01.998Z,11.55
2017-12-26T11:50:01.474Z,11.50
2017-12-26T11:51:03.381Z,11.47
2017-12-26T11:52:01.480Z,11.52
2017-12-26T11:53:01.477Z,11.51
2017-12-26T11:54:01.470Z,11.51
2017-12-26T11:55:03.369Z,11.55
2017-12-26T11:56:01.475Z,11.50
2017-12-26T11:57:01.467Z,11.57
2017-12-26T11:58:01.493Z,11.55
2017-12-26T11:59:01.459Z,11.62
2017-12-26T12:00:01.478Z,11.60
2017-12-26T12:01:01.459Z,11.68
2017-12-26T12:02:01.458Z,11.69
2017-12-26T12:03:01.556Z,11.69
2017-12-26T12:04:01.457Z,11.72
2017-12-26T12:05:01.460Z,11.70
2017-12-26T12:06:01.479Z,11.77
2017-12-26T12:07:01.445Z,11.72
2017-12-26T12:08:01.610Z,11.81
2017-12-26T12:09:01.442Z,11.84
2017-12-26T12:10:01.447Z,11.86
2017-12-26T12:11:01.460Z,11.90
2017-12-26T12:12:03.383Z,11.94
2017-12-26T12:13:01.440Z,11.95
2017-12-26T12:14:01.437Z,11.91
2017-12-26T12:15:01.431Z,11.99
2017-12-26T12:16:01.436Z,11.99
2017-12-26T12:17:02.431Z,12.10
2017-12-26T12:18:01.427Z,12.12
2017-12-26T12:19:01.430Z,12.03
2017-12-26T12:20:03.375Z,12.07
2017-12-26T12:21:02.646Z,12.06
2017-12-26T12:22:01.425Z,11.99
2017-12-26T12:23:01.438Z,11.99
2017-12-26T12:24:01.816Z,12.09
2017-12-26T12:25:01.416Z,11.94
2017-12-26T12:26:02.556Z,11.87
2017-12-26T12:27:01.535Z,11.84
2017-12-26T12:28:01.415Z,11.80
2017-12-26T12:29:01.419Z,11.83
2017-12-26T12:30:01.613Z,11.75
2017-12-26T12:31:01.589Z,11.68
2017-12-26T12:32:01.419Z,11.78
2017-12-26T12:33:01.415Z,11.73
2017-12-26T12:34:01.427Z,11.68
2017-12-26T12:35:03.384Z,11.73
2017-12-26T12:36:01.403Z,11.68
2017-12-26T12:37:01.429Z,11.65
2017-12-26T12:38:01.401Z,11.68
2017-12-26T12:39:01.408Z,11.66
2017-12-26T12:40:01.396Z,11.66
2017-12-26T12:41:01.419Z,11.60
2017-12-26T12:42:01.400Z,11.63
2017-12-26T12:43:01.391Z,11.69
2017-12-26T12:44:01.395Z,11.68
2017-12-26T12:45:01.423Z,11.68
2017-12-26T12:46:01.384Z,11.73
2017-12-26T12:47:01.455Z,11.75
2017-12-26T12:48:01.383Z,11.70
2017-12-26T12:49:04.916Z,11.69
2017-12-26T12:50:01.393Z,11.72
2017-12-26T12:51:01.413Z,11.77
2017-12-26T12:52:01.373Z,11.70
2017-12-26T12:53:01.394Z,11.68
2017-12-26T12:54:01.632Z,11.66
2017-12-26T12:55:03.922Z,11.68
2017-12-26T12:56:01.380Z,11.63
2017-12-26T12:57:01.401Z,11.69
2017-12-26T12:58:01.364Z,11.65
2017-12-26T12:59:01.375Z,11.63
2017-12-26T13:00:01.372Z,11.65
2017-12-26T13:01:01.363Z,11.62
2017-12-26T13:02:01.362Z,11.59
2017-12-26T13:03:01.372Z,11.50
2017-12-26T13:04:01.360Z,11.59
2017-12-26T13:05:01.370Z,11.60
2017-12-26T13:06:01.379Z,11.63
2017-12-26T13:07:01.356Z,11.60
2017-12-26T13:08:01.352Z,11.52
2017-12-26T13:09:01.357Z,11.60
2017-12-26T13:10:01.350Z,11.65
2017-12-26T13:11:01.813Z,11.52
2017-12-26T13:12:01.364Z,11.50